الصفحة الرئيسية
METAR-TAF:

METAR-TAF

مطار :

كينغستون, جامايكا

مطار نورمان مانلي الدولي

دائرة عرض: 17-56N, خط طول: 076-47W, ارتفاع: 3 متر

مراقبة الطقس الحالي

تاريخ ووقت الإصدار 11 دقيقة قبل الساعة 11:00UTC
ريح 3 عقدة من الشمال الشرقي
درجة الحرارة 25°درجة مئوية
الرطوبة 83%
ضغط 1014 hPa
الرؤية 10 كم أو أكثر
غيوم قليلة على ارتفاع 2200 قدم

METAR: MKJP 161100Z 04003KT 9999 FEW022 25/22 Q1014

زمن: 06:11 (11:11 UTC)

توقعات

تاريخ ووقت الإصدار 5ساعات و 56 دقيقة قبل الساعة 05:15UTC
التوقعات صالحة من16 الساعة 06 UTC إلى 17 الساعة 06 UTC
ريح 5 عقدة من الشمال
الرؤية 10 كم أو أكثر
غيوم قليلة على ارتفاع 2200 قدم
أصبح
من 16 الساعة 12 UTC إلى 16 الساعة 14 UTC
ريح 18 عقدة من الجنوب الشرقي
غيوم قليلة على ارتفاع 2200 قدم, مزنة ركامية.
مؤقت
من 16 الساعة 20 UTC إلى 16 الساعة 24 UTC
الرؤية: 8000 متر
غيوم متفرقة على ارتفاع 2000 قدم
زخات من المطر
أصبح
من 17 الساعة 00 UTC إلى 17 الساعة 02 UTC
ريح 5 عقدة من الشمال
غيوم قليلة على ارتفاع 2000 قدم, مزنة ركامية.

TAF: MKJP 160515Z 1606/1706 36005KT 9999 FEW022 BECMG 1612/1614 14018KT FEW022CB TEMPO 1620/1624 8000 SHRA SCT020 BECMG 1700/1702 36005KT FEW020CB

أرصاد الطقس والتوقعات من أكثر من 4000 مطار (تقارير الطقس للمطار METAR والتنبؤ بالطقس بالمطارTAF).

المحطات المتاحة هي النقط الصفراء والحمراء على الخريطة.

حرك المؤشر فوق النقطة لمعرفة اسم المحطة.

ثم انقر لمعرفة أرصاد وتوقعات الطقس.

لتغيير الخارطة: اضغط على الأزرار الخضراء مع رمز الصليب الأسود للتكبير. على الزر الأخضر مع شرطة للتصغير، أو على الأسهم الخضراء للخرائط المجاورة.


METAR-TAF: